sensor_id;sensor_type;location;lat;lon;timestamp;P1;durP1;ratioP1;P2;durP2;ratioP2
44110;SDS011;29774;52.664;5.074;2023-11-18T00:01:08;15.43;;;10.85;;
44110;SDS011;29774;52.664;5.074;2023-11-18T00:03:34;15.30;;;11.05;;
44110;SDS011;29774;52.664;5.074;2023-11-18T00:06:00;15.75;;;11.05;;
44110;SDS011;29774;52.664;5.074;2023-11-18T00:08:25;17.40;;;11.38;;
44110;SDS011;29774;52.664;5.074;2023-11-18T00:10:51;18.75;;;12.43;;
44110;SDS011;29774;52.664;5.074;2023-11-18T00:13:16;15.82;;;12.40;;
44110;SDS011;29774;52.664;5.074;2023-11-18T00:15:42;15.15;;;11.18;;
44110;SDS011;29774;52.664;5.074;2023-11-18T00:18:11;18.25;;;10.98;;
44110;SDS011;29774;52.664;5.074;2023-11-18T00:20:36;16.10;;;12.00;;
44110;SDS011;29774;52.664;5.074;2023-11-18T00:23:02;17.95;;;12.05;;
44110;SDS011;29774;52.664;5.074;2023-11-18T00:25:29;16.65;;;10.90;;
44110;SDS011;29774;52.664;5.074;2023-11-18T00:27:55;18.13;;;10.73;;
44110;SDS011;29774;52.664;5.074;2023-11-18T00:30:21;17.17;;;10.75;;
44110;SDS011;29774;52.664;5.074;2023-11-18T00:32:47;17.75;;;11.32;;
44110;SDS011;29774;52.664;5.074;2023-11-18T00:35:13;17.90;;;11.52;;
44110;SDS011;29774;52.664;5.074;2023-11-18T00:37:39;16.70;;;11.38;;
44110;SDS011;29774;52.664;5.074;2023-11-18T00:40:06;17.20;;;11.68;;
44110;SDS011;29774;52.664;5.074;2023-11-18T00:42:33;15.95;;;11.10;;
44110;SDS011;29774;52.664;5.074;2023-11-18T00:44:58;14.18;;;10.63;;
44110;SDS011;29774;52.664;5.074;2023-11-18T00:47:24;14.55;;;11.70;;
44110;SDS011;29774;52.664;5.074;2023-11-18T00:49:50;16.05;;;11.10;;
44110;SDS011;29774;52.664;5.074;2023-11-18T00:52:17;16.75;;;11.18;;
44110;SDS011;29774;52.664;5.074;2023-11-18T00:54:44;15.48;;;10.73;;
44110;SDS011;29774;52.664;5.074;2023-11-18T00:57:09;16.80;;;10.10;;
44110;SDS011;29774;52.664;5.074;2023-11-18T00:59:35;14.18;;;11.05;;
44110;SDS011;29774;52.664;5.074;2023-11-18T01:02:01;16.08;;;10.43;;
44110;SDS011;29774;52.664;5.074;2023-11-18T01:04:29;15.73;;;11.57;;
44110;SDS011;29774;52.664;5.074;2023-11-18T01:06:58;15.10;;;10.60;;
44110;SDS011;29774;52.664;5.074;2023-11-18T01:09:23;15.43;;;9.45;;
44110;SDS011;29774;52.664;5.074;2023-11-18T01:11:50;16.23;;;11.13;;
44110;SDS011;29774;52.664;5.074;2023-11-18T01:14:15;15.00;;;10.10;;
44110;SDS011;29774;52.664;5.074;2023-11-18T01:16:42;16.92;;;11.05;;
44110;SDS011;29774;52.664;5.074;2023-11-18T01:19:09;13.07;;;10.05;;
44110;SDS011;29774;52.664;5.074;2023-11-18T01:21:35;15.43;;;10.63;;
44110;SDS011;29774;52.664;5.074;2023-11-18T01:24:01;14.60;;;10.02;;
44110;SDS011;29774;52.664;5.074;2023-11-18T01:26:27;15.90;;;10.85;;
44110;SDS011;29774;52.664;5.074;2023-11-18T01:28:53;12.93;;;9.90;;
44110;SDS011;29774;52.664;5.074;2023-11-18T01:31:20;16.48;;;10.57;;
44110;SDS011;29774;52.664;5.074;2023-11-18T01:33:46;16.70;;;10.02;;
44110;SDS011;29774;52.664;5.074;2023-11-18T01:36:15;19.35;;;10.73;;
44110;SDS011;29774;52.664;5.074;2023-11-18T01:38:40;17.35;;;10.70;;
44110;SDS011;29774;52.664;5.074;2023-11-18T01:41:06;18.25;;;10.43;;
44110;SDS011;29774;52.664;5.074;2023-11-18T01:43:32;14.73;;;11.20;;
44110;SDS011;29774;52.664;5.074;2023-11-18T01:46:02;12.98;;;9.90;;
44110;SDS011;29774;52.664;5.074;2023-11-18T01:48:30;15.15;;;9.95;;
44110;SDS011;29774;52.664;5.074;2023-11-18T01:50:58;15.25;;;10.20;;
44110;SDS011;29774;52.664;5.074;2023-11-18T01:53:24;15.77;;;9.90;;
44110;SDS011;29774;52.664;5.074;2023-11-18T01:55:51;15.32;;;9.68;;
44110;SDS011;29774;52.664;5.074;2023-11-18T01:58:17;13.98;;;10.15;;
44110;SDS011;29774;52.664;5.074;2023-11-18T02:00:45;11.63;;;9.48;;
44110;SDS011;29774;52.664;5.074;2023-11-18T02:03:14;14.52;;;10.13;;
44110;SDS011;29774;52.664;5.074;2023-11-18T02:05:40;13.40;;;8.82;;
44110;SDS011;29774;52.664;5.074;2023-11-18T02:08:07;14.40;;;9.27;;
44110;SDS011;29774;52.664;5.074;2023-11-18T02:10:34;11.60;;;9.13;;
44110;SDS011;29774;52.664;5.074;2023-11-18T02:13:09;12.75;;;9.00;;
44110;SDS011;29774;52.664;5.074;2023-11-18T02:15:40;13.18;;;9.07;;
44110;SDS011;29774;52.664;5.074;2023-11-18T02:18:06;14.23;;;9.13;;
44110;SDS011;29774;52.664;5.074;2023-11-18T02:20:34;15.15;;;8.70;;
44110;SDS011;29774;52.664;5.074;2023-11-18T02:23:01;14.05;;;8.88;;
44110;SDS011;29774;52.664;5.074;2023-11-18T02:25:27;15.32;;;9.07;;
44110;SDS011;29774;52.664;5.074;2023-11-18T02:27:58;14.75;;;8.65;;
44110;SDS011;29774;52.664;5.074;2023-11-18T02:30:24;15.55;;;10.00;;
44110;SDS011;29774;52.664;5.074;2023-11-18T02:33:15;17.48;;;10.38;;
44110;SDS011;29774;52.664;5.074;2023-11-18T02:36:03;13.57;;;9.75;;
44110;SDS011;29774;52.664;5.074;2023-11-18T02:38:31;12.82;;;9.25;;
44110;SDS011;29774;52.664;5.074;2023-11-18T02:41:10;16.33;;;9.63;;
44110;SDS011;29774;52.664;5.074;2023-11-18T02:43:39;15.32;;;9.45;;
44110;SDS011;29774;52.664;5.074;2023-11-18T02:46:05;12.95;;;9.48;;
44110;SDS011;29774;52.664;5.074;2023-11-18T02:48:33;12.77;;;8.60;;
44110;SDS011;29774;52.664;5.074;2023-11-18T02:51:00;13.45;;;8.73;;
44110;SDS011;29774;52.664;5.074;2023-11-18T02:53:27;11.38;;;8.65;;
44110;SDS011;29774;52.664;5.074;2023-11-18T02:55:52;13.60;;;9.27;;
44110;SDS011;29774;52.664;5.074;2023-11-18T02:58:19;11.25;;;7.72;;
44110;SDS011;29774;52.664;5.074;2023-11-18T03:00:45;15.95;;;9.13;;
44110;SDS011;29774;52.664;5.074;2023-11-18T03:03:11;12.88;;;8.98;;
44110;SDS011;29774;52.664;5.074;2023-11-18T03:05:37;14.18;;;8.98;;
44110;SDS011;29774;52.664;5.074;2023-11-18T03:08:02;15.18;;;9.48;;
44110;SDS011;29774;52.664;5.074;2023-11-18T03:10:31;15.25;;;9.48;;
44110;SDS011;29774;52.664;5.074;2023-11-18T03:12:59;13.50;;;9.13;;
44110;SDS011;29774;52.664;5.074;2023-11-18T03:15:25;12.82;;;9.20;;
44110;SDS011;29774;52.664;5.074;2023-11-18T03:17:52;16.02;;;9.65;;
44110;SDS011;29774;52.664;5.074;2023-11-18T03:20:22;18.15;;;9.55;;
44110;SDS011;29774;52.664;5.074;2023-11-18T03:22:48;13.43;;;9.05;;
44110;SDS011;29774;52.664;5.074;2023-11-18T03:25:16;16.73;;;9.88;;
44110;SDS011;29774;52.664;5.074;2023-11-18T03:27:44;12.93;;;9.15;;
44110;SDS011;29774;52.664;5.074;2023-11-18T03:30:10;14.35;;;9.85;;
44110;SDS011;29774;52.664;5.074;2023-11-18T03:32:36;17.25;;;9.60;;
44110;SDS011;29774;52.664;5.074;2023-11-18T03:35:04;12.63;;;9.15;;
44110;SDS011;29774;52.664;5.074;2023-11-18T03:37:36;12.57;;;8.55;;
44110;SDS011;29774;52.664;5.074;2023-11-18T03:40:14;15.32;;;9.48;;
44110;SDS011;29774;52.664;5.074;2023-11-18T03:42:43;12.25;;;8.27;;
44110;SDS011;29774;52.664;5.074;2023-11-18T03:45:12;15.82;;;9.95;;
44110;SDS011;29774;52.664;5.074;2023-11-18T03:47:40;12.43;;;8.20;;
44110;SDS011;29774;52.664;5.074;2023-11-18T03:50:06;14.52;;;9.52;;
44110;SDS011;29774;52.664;5.074;2023-11-18T03:52:35;14.98;;;9.13;;
44110;SDS011;29774;52.664;5.074;2023-11-18T03:55:03;14.90;;;9.48;;
44110;SDS011;29774;52.664;5.074;2023-11-18T03:57:29;14.38;;;8.90;;
44110;SDS011;29774;52.664;5.074;2023-11-18T03:59:55;12.98;;;9.00;;
44110;SDS011;29774;52.664;5.074;2023-11-18T04:02:20;11.45;;;8.35;;
44110;SDS011;29774;52.664;5.074;2023-11-18T04:04:46;11.43;;;8.35;;
44110;SDS011;29774;52.664;5.074;2023-11-18T04:07:13;12.52;;;8.45;;
44110;SDS011;29774;52.664;5.074;2023-11-18T04:09:38;15.90;;;8.45;;
44110;SDS011;29774;52.664;5.074;2023-11-18T04:12:06;11.50;;;8.27;;
44110;SDS011;29774;52.664;5.074;2023-11-18T04:14:32;14.77;;;9.23;;
44110;SDS011;29774;52.664;5.074;2023-11-18T04:16:58;12.43;;;7.55;;
44110;SDS011;29774;52.664;5.074;2023-11-18T04:19:24;16.08;;;8.48;;
44110;SDS011;29774;52.664;5.074;2023-11-18T04:21:50;13.05;;;9.32;;
44110;SDS011;29774;52.664;5.074;2023-11-18T04:24:16;14.50;;;8.52;;
44110;SDS011;29774;52.664;5.074;2023-11-18T04:26:42;16.20;;;9.07;;
44110;SDS011;29774;52.664;5.074;2023-11-18T04:29:07;12.75;;;9.18;;
44110;SDS011;29774;52.664;5.074;2023-11-18T04:31:33;12.07;;;8.98;;
44110;SDS011;29774;52.664;5.074;2023-11-18T04:33:59;13.93;;;8.73;;
44110;SDS011;29774;52.664;5.074;2023-11-18T04:36:25;12.45;;;8.50;;
44110;SDS011;29774;52.664;5.074;2023-11-18T04:38:51;12.88;;;9.07;;
44110;SDS011;29774;52.664;5.074;2023-11-18T04:41:17;12.60;;;9.32;;
44110;SDS011;29774;52.664;5.074;2023-11-18T04:43:43;13.45;;;8.70;;
44110;SDS011;29774;52.664;5.074;2023-11-18T04:46:08;11.85;;;8.60;;
44110;SDS011;29774;52.664;5.074;2023-11-18T04:48:35;13.95;;;8.90;;
44110;SDS011;29774;52.664;5.074;2023-11-18T04:51:01;16.33;;;10.68;;
44110;SDS011;29774;52.664;5.074;2023-11-18T04:53:27;12.93;;;8.48;;
44110;SDS011;29774;52.664;5.074;2023-11-18T04:55:53;17.45;;;9.85;;
44110;SDS011;29774;52.664;5.074;2023-11-18T04:58:18;16.40;;;8.50;;
44110;SDS011;29774;52.664;5.074;2023-11-18T05:00:44;15.30;;;8.43;;
44110;SDS011;29774;52.664;5.074;2023-11-18T05:03:10;13.50;;;9.77;;
44110;SDS011;29774;52.664;5.074;2023-11-18T05:05:36;14.38;;;9.65;;
44110;SDS011;29774;52.664;5.074;2023-11-18T05:08:05;18.80;;;9.27;;
44110;SDS011;29774;52.664;5.074;2023-11-18T05:10:32;13.13;;;9.40;;
44110;SDS011;29774;52.664;5.074;2023-11-18T05:12:58;20.60;;;10.20;;
44110;SDS011;29774;52.664;5.074;2023-11-18T05:15:24;14.65;;;8.48;;
44110;SDS011;29774;52.664;5.074;2023-11-18T05:17:50;14.07;;;9.07;;
44110;SDS011;29774;52.664;5.074;2023-11-18T05:20:16;15.35;;;8.65;;
44110;SDS011;29774;52.664;5.074;2023-11-18T05:22:42;12.65;;;8.13;;
44110;SDS011;29774;52.664;5.074;2023-11-18T05:25:08;18.38;;;8.90;;
44110;SDS011;29774;52.664;5.074;2023-11-18T05:27:34;12.93;;;8.68;;
44110;SDS011;29774;52.664;5.074;2023-11-18T05:30:00;15.95;;;8.88;;
44110;SDS011;29774;52.664;5.074;2023-11-18T05:32:27;15.05;;;8.10;;
44110;SDS011;29774;52.664;5.074;2023-11-18T05:34:53;12.15;;;7.00;;
44110;SDS011;29774;52.664;5.074;2023-11-18T05:37:23;15.60;;;7.93;;
44110;SDS011;29774;52.664;5.074;2023-11-18T05:39:49;9.75;;;7.13;;
44110;SDS011;29774;52.664;5.074;2023-11-18T05:42:24;9.82;;;7.35;;
44110;SDS011;29774;52.664;5.074;2023-11-18T05:44:52;9.88;;;6.90;;
44110;SDS011;29774;52.664;5.074;2023-11-18T05:47:24;10.23;;;6.85;;
44110;SDS011;29774;52.664;5.074;2023-11-18T05:49:51;11.30;;;6.85;;
44110;SDS011;29774;52.664;5.074;2023-11-18T05:52:17;12.57;;;7.80;;
44110;SDS011;29774;52.664;5.074;2023-11-18T05:54:42;13.70;;;6.85;;
44110;SDS011;29774;52.664;5.074;2023-11-18T05:57:09;8.80;;;6.68;;
44110;SDS011;29774;52.664;5.074;2023-11-18T05:59:34;11.38;;;6.70;;
44110;SDS011;29774;52.664;5.074;2023-11-18T06:02:01;11.18;;;6.45;;
44110;SDS011;29774;52.664;5.074;2023-11-18T06:04:28;9.43;;;6.72;;
44110;SDS011;29774;52.664;5.074;2023-11-18T06:06:54;13.07;;;7.90;;
44110;SDS011;29774;52.664;5.074;2023-11-18T06:09:19;12.23;;;7.35;;
44110;SDS011;29774;52.664;5.074;2023-11-18T06:11:50;17.42;;;8.45;;
44110;SDS011;29774;52.664;5.074;2023-11-18T06:14:18;12.25;;;7.63;;
44110;SDS011;29774;52.664;5.074;2023-11-18T06:16:44;11.70;;;8.23;;
44110;SDS011;29774;52.664;5.074;2023-11-18T06:19:10;13.60;;;8.30;;
44110;SDS011;29774;52.664;5.074;2023-11-18T06:21:35;11.38;;;7.63;;
44110;SDS011;29774;52.664;5.074;2023-11-18T06:24:02;14.13;;;8.35;;
44110;SDS011;29774;52.664;5.074;2023-11-18T06:26:30;13.10;;;8.07;;
44110;SDS011;29774;52.664;5.074;2023-11-18T06:28:56;13.88;;;8.40;;
44110;SDS011;29774;52.664;5.074;2023-11-18T06:31:22;10.95;;;8.00;;
44110;SDS011;29774;52.664;5.074;2023-11-18T06:33:49;16.58;;;8.02;;
44110;SDS011;29774;52.664;5.074;2023-11-18T06:38:47;12.48;;;8.05;;
44110;SDS011;29774;52.664;5.074;2023-11-18T06:41:17;14.52;;;7.90;;
44110;SDS011;29774;52.664;5.074;2023-11-18T06:43:45;15.05;;;8.25;;
44110;SDS011;29774;52.664;5.074;2023-11-18T06:48:58;16.40;;;8.02;;
44110;SDS011;29774;52.664;5.074;2023-11-18T06:51:29;12.93;;;7.68;;
44110;SDS011;29774;52.664;5.074;2023-11-18T06:53:57;13.73;;;8.90;;
44110;SDS011;29774;52.664;5.074;2023-11-18T06:56:26;13.23;;;8.00;;
44110;SDS011;29774;52.664;5.074;2023-11-18T06:58:52;11.93;;;7.45;;
44110;SDS011;29774;52.664;5.074;2023-11-18T07:01:19;11.23;;;7.55;;
44110;SDS011;29774;52.664;5.074;2023-11-18T07:03:45;14.18;;;8.80;;
44110;SDS011;29774;52.664;5.074;2023-11-18T07:06:16;13.32;;;8.55;;
44110;SDS011;29774;52.664;5.074;2023-11-18T07:08:47;13.93;;;8.80;;
44110;SDS011;29774;52.664;5.074;2023-11-18T07:11:14;13.80;;;8.20;;
44110;SDS011;29774;52.664;5.074;2023-11-18T07:13:40;16.33;;;8.85;;
44110;SDS011;29774;52.664;5.074;2023-11-18T07:16:06;17.17;;;9.13;;
44110;SDS011;29774;52.664;5.074;2023-11-18T07:18:34;14.02;;;8.00;;
44110;SDS011;29774;52.664;5.074;2023-11-18T07:21:00;12.27;;;8.23;;
44110;SDS011;29774;52.664;5.074;2023-11-18T07:23:28;13.82;;;8.90;;
44110;SDS011;29774;52.664;5.074;2023-11-18T07:25:54;17.80;;;9.68;;
44110;SDS011;29774;52.664;5.074;2023-11-18T07:28:19;15.18;;;8.38;;
44110;SDS011;29774;52.664;5.074;2023-11-18T07:30:45;12.80;;;9.27;;
44110;SDS011;29774;52.664;5.074;2023-11-18T07:33:21;15.95;;;9.13;;
44110;SDS011;29774;52.664;5.074;2023-11-18T07:35:48;15.55;;;9.52;;
44110;SDS011;29774;52.664;5.074;2023-11-18T07:38:14;14.40;;;8.65;;
44110;SDS011;29774;52.664;5.074;2023-11-18T07:40:40;13.40;;;8.95;;
44110;SDS011;29774;52.664;5.074;2023-11-18T07:43:14;14.75;;;9.30;;
44110;SDS011;29774;52.664;5.074;2023-11-18T07:45:40;16.05;;;9.15;;
44110;SDS011;29774;52.664;5.074;2023-11-18T07:48:10;13.45;;;8.30;;
44110;SDS011;29774;52.664;5.074;2023-11-18T07:50:42;17.58;;;8.85;;
44110;SDS011;29774;52.664;5.074;2023-11-18T07:53:15;12.38;;;8.00;;
44110;SDS011;29774;52.664;5.074;2023-11-18T07:55:41;17.40;;;8.52;;
44110;SDS011;29774;52.664;5.074;2023-11-18T07:58:07;15.68;;;9.45;;
44110;SDS011;29774;52.664;5.074;2023-11-18T08:00:40;15.23;;;8.68;;
44110;SDS011;29774;52.664;5.074;2023-11-18T08:03:06;15.93;;;9.75;;
44110;SDS011;29774;52.664;5.074;2023-11-18T08:05:36;14.40;;;8.13;;
44110;SDS011;29774;52.664;5.074;2023-11-18T08:08:04;18.38;;;9.68;;
44110;SDS011;29774;52.664;5.074;2023-11-18T08:10:34;16.10;;;8.90;;
44110;SDS011;29774;52.664;5.074;2023-11-18T08:13:02;13.93;;;8.23;;
44110;SDS011;29774;52.664;5.074;2023-11-18T08:15:29;15.43;;;8.00;;
44110;SDS011;29774;52.664;5.074;2023-11-18T08:17:56;15.85;;;9.05;;
44110;SDS011;29774;52.664;5.074;2023-11-18T08:20:21;17.20;;;8.10;;
44110;SDS011;29774;52.664;5.074;2023-11-18T08:22:49;15.23;;;8.75;;
44110;SDS011;29774;52.664;5.074;2023-11-18T08:25:15;15.02;;;8.30;;
44110;SDS011;29774;52.664;5.074;2023-11-18T08:27:42;15.35;;;7.97;;
44110;SDS011;29774;52.664;5.074;2023-11-18T08:30:10;14.00;;;7.85;;
44110;SDS011;29774;52.664;5.074;2023-11-18T08:32:38;15.25;;;10.05;;
44110;SDS011;29774;52.664;5.074;2023-11-18T08:35:07;15.18;;;8.05;;
44110;SDS011;29774;52.664;5.074;2023-11-18T08:37:34;18.85;;;9.18;;
44110;SDS011;29774;52.664;5.074;2023-11-18T08:40:03;18.02;;;8.90;;
44110;SDS011;29774;52.664;5.074;2023-11-18T08:42:31;14.98;;;8.18;;
44110;SDS011;29774;52.664;5.074;2023-11-18T08:44:59;13.90;;;7.95;;
44110;SDS011;29774;52.664;5.074;2023-11-18T08:47:26;10.98;;;7.38;;
44110;SDS011;29774;52.664;5.074;2023-11-18T08:49:52;16.05;;;8.40;;
44110;SDS011;29774;52.664;5.074;2023-11-18T08:52:17;11.02;;;6.80;;
44110;SDS011;29774;52.664;5.074;2023-11-18T08:54:43;14.30;;;7.72;;
44110;SDS011;29774;52.664;5.074;2023-11-18T08:57:45;11.45;;;6.72;;
44110;SDS011;29774;52.664;5.074;2023-11-18T09:00:26;10.38;;;6.97;;
44110;SDS011;29774;52.664;5.074;2023-11-18T09:03:25;14.52;;;7.07;;
44110;SDS011;29774;52.664;5.074;2023-11-18T09:06:02;16.35;;;8.75;;
44110;SDS011;29774;52.664;5.074;2023-11-18T09:11:14;12.13;;;7.13;;
44110;SDS011;29774;52.664;5.074;2023-11-18T09:13:41;11.63;;;7.47;;
44110;SDS011;29774;52.664;5.074;2023-11-18T09:16:22;12.50;;;6.45;;
44110;SDS011;29774;52.664;5.074;2023-11-18T09:18:50;12.02;;;7.10;;
44110;SDS011;29774;52.664;5.074;2023-11-18T09:21:16;13.93;;;7.45;;
44110;SDS011;29774;52.664;5.074;2023-11-18T09:23:49;11.30;;;6.68;;
44110;SDS011;29774;52.664;5.074;2023-11-18T09:26:15;11.65;;;7.30;;
44110;SDS011;29774;52.664;5.074;2023-11-18T09:28:41;10.80;;;6.70;;
44110;SDS011;29774;52.664;5.074;2023-11-18T09:31:09;12.40;;;7.20;;
44110;SDS011;29774;52.664;5.074;2023-11-18T09:33:38;11.65;;;7.28;;
44110;SDS011;29774;52.664;5.074;2023-11-18T09:36:10;10.27;;;6.60;;
44110;SDS011;29774;52.664;5.074;2023-11-18T09:38:38;13.43;;;7.40;;
44110;SDS011;29774;52.664;5.074;2023-11-18T09:41:08;12.68;;;7.10;;
44110;SDS011;29774;52.664;5.074;2023-11-18T09:46:24;12.90;;;7.63;;
44110;SDS011;29774;52.664;5.074;2023-11-18T09:51:40;8.82;;;6.43;;
44110;SDS011;29774;52.664;5.074;2023-11-18T09:54:18;9.50;;;6.18;;
44110;SDS011;29774;52.664;5.074;2023-11-18T09:57:03;13.00;;;7.05;;
44110;SDS011;29774;52.664;5.074;2023-11-18T10:02:12;14.10;;;6.75;;
44110;SDS011;29774;52.664;5.074;2023-11-18T10:04:39;11.30;;;6.15;;
44110;SDS011;29774;52.664;5.074;2023-11-18T10:07:06;11.75;;;6.97;;
44110;SDS011;29774;52.664;5.074;2023-11-18T10:09:36;12.73;;;6.50;;
44110;SDS011;29774;52.664;5.074;2023-11-18T10:12:08;8.70;;;6.50;;
44110;SDS011;29774;52.664;5.074;2023-11-18T10:14:37;8.52;;;6.38;;
44110;SDS011;29774;52.664;5.074;2023-11-18T10:17:08;11.02;;;7.03;;
44110;SDS011;29774;52.664;5.074;2023-11-18T10:22:37;11.52;;;5.88;;
44110;SDS011;29774;52.664;5.074;2023-11-18T10:25:03;8.80;;;5.40;;
44110;SDS011;29774;52.664;5.074;2023-11-18T10:27:31;10.43;;;6.10;;
44110;SDS011;29774;52.664;5.074;2023-11-18T10:30:03;10.40;;;5.70;;
44110;SDS011;29774;52.664;5.074;2023-11-18T10:32:30;9.23;;;6.00;;
44110;SDS011;29774;52.664;5.074;2023-11-18T10:35:00;9.60;;;6.20;;
44110;SDS011;29774;52.664;5.074;2023-11-18T10:37:29;12.18;;;5.90;;
44110;SDS011;29774;52.664;5.074;2023-11-18T10:39:56;11.20;;;6.28;;
44110;SDS011;29774;52.664;5.074;2023-11-18T10:42:25;8.15;;;5.78;;
44110;SDS011;29774;52.664;5.074;2023-11-18T10:44:58;12.55;;;5.75;;
44110;SDS011;29774;52.664;5.074;2023-11-18T10:47:26;9.52;;;5.97;;
44110;SDS011;29774;52.664;5.074;2023-11-18T10:49:54;7.38;;;5.18;;
44110;SDS011;29774;52.664;5.074;2023-11-18T10:52:24;9.45;;;5.60;;
44110;SDS011;29774;52.664;5.074;2023-11-18T10:54:54;8.55;;;4.72;;
44110;SDS011;29774;52.664;5.074;2023-11-18T10:57:20;6.57;;;4.82;;
44110;SDS011;29774;52.664;5.074;2023-11-18T10:59:59;11.70;;;5.72;;
44110;SDS011;29774;52.664;5.074;2023-11-18T11:02:31;9.15;;;5.85;;
44110;SDS011;29774;52.664;5.074;2023-11-18T11:05:00;12.43;;;5.88;;
44110;SDS011;29774;52.664;5.074;2023-11-18T11:07:26;9.25;;;6.05;;
44110;SDS011;29774;52.664;5.074;2023-11-18T11:09:52;8.55;;;5.28;;
44110;SDS011;29774;52.664;5.074;2023-11-18T11:12:21;7.95;;;5.43;;
44110;SDS011;29774;52.664;5.074;2023-11-18T11:15:00;10.10;;;4.70;;
44110;SDS011;29774;52.664;5.074;2023-11-18T11:17:33;6.72;;;5.00;;
44110;SDS011;29774;52.664;5.074;2023-11-18T11:20:06;9.63;;;4.95;;
44110;SDS011;29774;52.664;5.074;2023-11-18T11:25:33;7.85;;;4.47;;
44110;SDS011;29774;52.664;5.074;2023-11-18T11:28:15;8.40;;;4.70;;
44110;SDS011;29774;52.664;5.074;2023-11-18T11:30:46;10.80;;;4.70;;
44110;SDS011;29774;52.664;5.074;2023-11-18T11:33:18;10.98;;;4.60;;
44110;SDS011;29774;52.664;5.074;2023-11-18T11:35:56;9.07;;;4.57;;
44110;SDS011;29774;52.664;5.074;2023-11-18T11:38:24;9.55;;;4.10;;
44110;SDS011;29774;52.664;5.074;2023-11-18T11:40:51;7.28;;;4.45;;
44110;SDS011;29774;52.664;5.074;2023-11-18T11:43:20;4.03;;;3.60;;
44110;SDS011;29774;52.664;5.074;2023-11-18T11:45:48;7.45;;;4.25;;
44110;SDS011;29774;52.664;5.074;2023-11-18T11:48:17;11.38;;;4.95;;
44110;SDS011;29774;52.664;5.074;2023-11-18T11:54:19;7.70;;;3.83;;
44110;SDS011;29774;52.664;5.074;2023-11-18T11:56:44;6.35;;;4.35;;
44110;SDS011;29774;52.664;5.074;2023-11-18T12:02:23;6.25;;;3.45;;
44110;SDS011;29774;52.664;5.074;2023-11-18T12:04:54;8.32;;;4.50;;
44110;SDS011;29774;52.664;5.074;2023-11-18T12:07:24;6.10;;;4.07;;
44110;SDS011;29774;52.664;5.074;2023-11-18T12:09:58;8.38;;;4.45;;
44110;SDS011;29774;52.664;5.074;2023-11-18T12:12:26;8.35;;;4.20;;
44110;SDS011;29774;52.664;5.074;2023-11-18T12:14:53;5.75;;;3.28;;
44110;SDS011;29774;52.664;5.074;2023-11-18T12:17:23;6.80;;;4.00;;
44110;SDS011;29774;52.664;5.074;2023-11-18T12:19:50;5.50;;;3.70;;
44110;SDS011;29774;52.664;5.074;2023-11-18T12:22:23;5.07;;;3.47;;
44110;SDS011;29774;52.664;5.074;2023-11-18T12:27:44;5.70;;;3.83;;
44110;SDS011;29774;52.664;5.074;2023-11-18T12:35:34;7.80;;;3.50;;
44110;SDS011;29774;52.664;5.074;2023-11-18T12:38:52;5.80;;;3.20;;
44110;SDS011;29774;52.664;5.074;2023-11-18T12:41:39;4.82;;;3.38;;
44110;SDS011;29774;52.664;5.074;2023-11-18T12:49:20;7.40;;;3.40;;
44110;SDS011;29774;52.664;5.074;2023-11-18T12:51:54;5.07;;;3.13;;
44110;SDS011;29774;52.664;5.074;2023-11-18T12:54:21;6.18;;;2.80;;
44110;SDS011;29774;52.664;5.074;2023-11-18T12:56:54;4.85;;;3.10;;
44110;SDS011;29774;52.664;5.074;2023-11-18T12:59:21;4.85;;;3.15;;
44110;SDS011;29774;52.664;5.074;2023-11-18T13:01:48;5.53;;;3.63;;
44110;SDS011;29774;52.664;5.074;2023-11-18T13:04:21;5.28;;;2.60;;
44110;SDS011;29774;52.664;5.074;2023-11-18T13:06:49;6.80;;;3.53;;
44110;SDS011;29774;52.664;5.074;2023-11-18T13:09:16;4.22;;;2.72;;
44110;SDS011;29774;52.664;5.074;2023-11-18T13:11:54;4.97;;;3.00;;
44110;SDS011;29774;52.664;5.074;2023-11-18T13:14:22;6.10;;;3.22;;
44110;SDS011;29774;52.664;5.074;2023-11-18T13:16:50;5.97;;;2.72;;
44110;SDS011;29774;52.664;5.074;2023-11-18T13:19:26;5.20;;;2.65;;
44110;SDS011;29774;52.664;5.074;2023-11-18T13:21:58;5.63;;;3.13;;
44110;SDS011;29774;52.664;5.074;2023-11-18T13:24:34;4.38;;;2.70;;
44110;SDS011;29774;52.664;5.074;2023-11-18T13:27:01;6.03;;;2.78;;
44110;SDS011;29774;52.664;5.074;2023-11-18T13:29:32;5.40;;;3.33;;
44110;SDS011;29774;52.664;5.074;2023-11-18T13:32:00;5.07;;;3.10;;
44110;SDS011;29774;52.664;5.074;2023-11-18T13:34:30;5.30;;;2.25;;
44110;SDS011;29774;52.664;5.074;2023-11-18T13:37:00;4.25;;;2.38;;
44110;SDS011;29774;52.664;5.074;2023-11-18T13:39:26;4.32;;;2.22;;
44110;SDS011;29774;52.664;5.074;2023-11-18T13:41:53;3.08;;;2.17;;
44110;SDS011;29774;52.664;5.074;2023-11-18T13:44:38;2.38;;;2.17;;
44110;SDS011;29774;52.664;5.074;2023-11-18T13:47:06;4.93;;;2.17;;
44110;SDS011;29774;52.664;5.074;2023-11-18T13:49:34;3.20;;;2.00;;
44110;SDS011;29774;52.664;5.074;2023-11-18T13:52:00;3.53;;;1.80;;
44110;SDS011;29774;52.664;5.074;2023-11-18T13:54:27;2.30;;;1.80;;
44110;SDS011;29774;52.664;5.074;2023-11-18T13:56:53;4.32;;;1.85;;
44110;SDS011;29774;52.664;5.074;2023-11-18T13:59:26;3.20;;;1.90;;
44110;SDS011;29774;52.664;5.074;2023-11-18T14:01:53;2.45;;;1.38;;
44110;SDS011;29774;52.664;5.074;2023-11-18T14:04:21;4.47;;;1.67;;
44110;SDS011;29774;52.664;5.074;2023-11-18T14:06:51;4.13;;;1.80;;
44110;SDS011;29774;52.664;5.074;2023-11-18T14:09:18;3.50;;;1.58;;
44110;SDS011;29774;52.664;5.074;2023-11-18T14:11:46;3.35;;;1.30;;
44110;SDS011;29774;52.664;5.074;2023-11-18T14:14:13;2.45;;;1.55;;
44110;SDS011;29774;52.664;5.074;2023-11-18T14:16:39;2.83;;;1.45;;
44110;SDS011;29774;52.664;5.074;2023-11-18T14:19:05;2.17;;;1.30;;
44110;SDS011;29774;52.664;5.074;2023-11-18T14:21:31;2.83;;;1.35;;
44110;SDS011;29774;52.664;5.074;2023-11-18T14:23:57;1.80;;;1.20;;
44110;SDS011;29774;52.664;5.074;2023-11-18T14:26:27;2.95;;;1.50;;
44110;SDS011;29774;52.664;5.074;2023-11-18T14:28:52;1.88;;;1.00;;
44110;SDS011;29774;52.664;5.074;2023-11-18T14:31:18;1.92;;;1.00;;
44110;SDS011;29774;52.664;5.074;2023-11-18T14:33:44;1.00;;;0.88;;
44110;SDS011;29774;52.664;5.074;2023-11-18T14:36:09;1.77;;;0.82;;
44110;SDS011;29774;52.664;5.074;2023-11-18T14:38:36;1.63;;;0.80;;
44110;SDS011;29774;52.664;5.074;2023-11-18T14:41:02;1.25;;;0.80;;
44110;SDS011;29774;52.664;5.074;2023-11-18T14:43:29;1.25;;;0.80;;
44110;SDS011;29774;52.664;5.074;2023-11-18T14:45:55;1.83;;;0.77;;
44110;SDS011;29774;52.664;5.074;2023-11-18T14:48:21;0.82;;;0.80;;
44110;SDS011;29774;52.664;5.074;2023-11-18T14:50:46;2.92;;;0.90;;
44110;SDS011;29774;52.664;5.074;2023-11-18T14:53:12;1.17;;;0.77;;
44110;SDS011;29774;52.664;5.074;2023-11-18T14:55:38;1.60;;;0.73;;
44110;SDS011;29774;52.664;5.074;2023-11-18T14:58:04;0.65;;;0.60;;
44110;SDS011;29774;52.664;5.074;2023-11-18T15:00:30;1.40;;;0.65;;
44110;SDS011;29774;52.664;5.074;2023-11-18T15:02:59;1.60;;;0.70;;
44110;SDS011;29774;52.664;5.074;2023-11-18T15:05:25;0.60;;;0.60;;
44110;SDS011;29774;52.664;5.074;2023-11-18T15:07:51;1.30;;;0.82;;
44110;SDS011;29774;52.664;5.074;2023-11-18T15:10:22;2.72;;;0.80;;
44110;SDS011;29774;52.664;5.074;2023-11-18T15:12:49;0.80;;;0.60;;
44110;SDS011;29774;52.664;5.074;2023-11-18T15:15:18;0.88;;;0.68;;
44110;SDS011;29774;52.664;5.074;2023-11-18T15:17:45;0.75;;;0.70;;
44110;SDS011;29774;52.664;5.074;2023-11-18T15:20:13;0.85;;;0.60;;
44110;SDS011;29774;52.664;5.074;2023-11-18T15:22:41;0.90;;;0.70;;
44110;SDS011;29774;52.664;5.074;2023-11-18T15:25:07;1.00;;;0.70;;